Terminal Aerodrome Forecast
Issued by NWS Springfield, MO

Home | Current Version | Previous Version | Text Only | Print | Product List | Glossary Off
Versions: 1 2 3 4 5 6 7 8 9 10 11 12 13 14 15 16 17 18 19 20 21 22 23 24 25 26 27 28 29 30 31

000
FTUS43 KSGF 291434 AAB
TAFSGF
TAF AMD
KSGF 291434Z 2915/3012 03016G22KT P6SM -TSRA OVC006CB
      TEMPO 2915/2917 4SM -TSRA OVC003CB
     FM291700 15012KT 3SM +SHRA OVC025
      TEMPO 2917/2919 1SM TS OVC015CB
     FM291900 16013KT 3SM +SHRA OVC045
      TEMPO 2919/2921 2SM TS OVC025CB
     FM292100 16014G23KT 5SM +SHRA VCTS OVC030CB
     FM301000 15010KT P6SM SHRA VCTS OVC015CB=

USA.gov is the U.S. government's official web portal to all federal, state and local government web resources and services.